Hackberry, Louisiana
Current Conditions -  °F | °C
As of 6:55 PM on Saturday 22 Nov 2014 (Local Time) from KUXL Reporting Station
Overcast Overcast  
Wind Chill: 67°   Ceiling: 4700
Heat Index: 67°   Visibility: 10mi
Dew Point: 64°   Wind: 13mph
Humidity: 91%   Direction: 120°ESE
Pressure: 29.91"   Gusts: 21mph
Location:  30°N, 93.34°W
Report Text: KUXL 230055Z AUTO 12011G18KT 10SM SCT018 BKN047 OVC100 19/18 A2991 RMK AO2 LTG DSNT SW AND W T01920177
Loading
Personal Weather Stations






























Interactive Weather Map New forecast layout! Learn more

10-Day Weather Forecast

Advertisements
Track Severe Weather on mobile